weather.gov     
National Weather Service

Terminal Aerodrome Forecast
NWS Homepage
This page is being discontinued on March 12, 2014.
The same data is available at this site. Please update your bookmarks.
Thank you, and we apologize for the inconvenience.
Please send an email to SR-SRH.Webmaster@noaa.gov with any concerns.


Current Version
Previous Version:    01  02  03  04  05  06  07  08  09  10  11  12  13  14  15  16  17  18  19  20  21  22  23  24  25  26  27  28  29  30  
   31  32  33  34  35  36  37  
[Printable]
856
FTUS42 KJAX 291721
TAFJAX
TAF
KJAX 291721Z 2918/3018 VRB04KT P6SM BKN250
     FM291900 17006KT P6SM FEW050 BKN250
     FM300000 21003KT P6SM BKN250
     FM301000 24005KT P6SM BKN100 OVC250
     FM301200 27007KT P6SM BKN025 OVC050
     FM301300 30010KT P6SM VCSH OVC015
     FM301600 31012G19KT P6SM BKN025=




856
FTUS42 KJAX 291721
TAFJAX
TAF
KJAX 291721Z 2918/3018 VRB04KT P6SM BKN250
     FM291900 17006KT P6SM FEW050 BKN250
     FM300000 21003KT P6SM BKN250
     FM301000 24005KT P6SM BKN100 OVC250
     FM301200 27007KT P6SM BKN025 OVC050
     FM301300 30010KT P6SM VCSH OVC015
     FM301600 31012G19KT P6SM BKN025=


U.S. Dept. of Commerce
NOAA National Weather Service
1325 East West Highway
Silver Spring, MD 20910
E-mail: w-nws.webmaster@noaa.gov
Page last modified: May 16, 2007
NATIONAL WEATHER SERVICE: for Safety, for Work, for Fun - FOR LIFE